sensor_id;sensor_type;location;lat;lon;timestamp;pressure;altitude;pressure_sealevel;temperature;humidity
39681;BME280;26327;42.550;23.120;2023-01-29T00:02:12;92813.84;;;3.51;73.38
39681;BME280;26327;42.550;23.120;2023-01-29T00:04:37;92823.22;;;3.32;74.40
39681;BME280;26327;42.550;23.120;2023-01-29T00:07:03;92793.06;;;3.25;74.10
39681;BME280;26327;42.550;23.120;2023-01-29T00:09:28;92734.91;;;2.87;73.57
39681;BME280;26327;42.550;23.120;2023-01-29T00:11:55;92830.44;;;3.56;73.08
39681;BME280;26327;42.550;23.120;2023-01-29T00:14:21;92726.03;;;2.42;74.18
39681;BME280;26327;42.550;23.120;2023-01-29T00:16:46;92730.06;;;2.35;75.71
39681;BME280;26327;42.550;23.120;2023-01-29T00:19:11;92821.59;;;3.02;74.68
39681;BME280;26327;42.550;23.120;2023-01-29T00:21:37;92787.97;;;2.76;75.38
39681;BME280;26327;42.550;23.120;2023-01-29T00:24:02;92840.38;;;3.22;74.49
39681;BME280;26327;42.550;23.120;2023-01-29T00:26:28;92835.38;;;3.11;75.26
39681;BME280;26327;42.550;23.120;2023-01-29T00:28:54;92772.16;;;2.81;75.26
39681;BME280;26327;42.550;23.120;2023-01-29T00:31:22;92687.69;;;2.02;75.78
39681;BME280;26327;42.550;23.120;2023-01-29T00:33:48;92831.75;;;2.84;76.09
39681;BME280;26327;42.550;23.120;2023-01-29T00:36:16;92809.44;;;2.75;75.16
39681;BME280;26327;42.550;23.120;2023-01-29T00:38:42;92762.75;;;2.43;75.60
39681;BME280;26327;42.550;23.120;2023-01-29T00:41:09;92820.94;;;2.91;75.34
39681;BME280;26327;42.550;23.120;2023-01-29T00:43:53;92752.44;;;2.24;76.50
39681;BME280;26327;42.550;23.120;2023-01-29T00:46:38;92793.19;;;2.27;76.95
39681;BME280;26327;42.550;23.120;2023-01-29T00:49:04;92843.44;;;2.39;78.55
39681;BME280;26327;42.550;23.120;2023-01-29T00:51:30;92836.16;;;2.53;78.79
39681;BME280;26327;42.550;23.120;2023-01-29T00:53:55;92768.63;;;2.24;78.38
39681;BME280;26327;42.550;23.120;2023-01-29T00:56:23;92747.19;;;2.15;78.34
39681;BME280;26327;42.550;23.120;2023-01-29T00:58:49;92786.75;;;2.42;78.65
39681;BME280;26327;42.550;23.120;2023-01-29T01:01:14;92807.28;;;2.71;77.98
39681;BME280;26327;42.550;23.120;2023-01-29T01:03:40;92788.78;;;2.48;77.85
39681;BME280;26327;42.550;23.120;2023-01-29T01:06:08;92750.41;;;2.27;77.92
39681;BME280;26327;42.550;23.120;2023-01-29T01:08:33;92824.97;;;2.83;77.44
39681;BME280;26327;42.550;23.120;2023-01-29T01:11:18;92834.03;;;2.88;77.61
39681;BME280;26327;42.550;23.120;2023-01-29T01:13:43;92836.34;;;2.91;77.37
39681;BME280;26327;42.550;23.120;2023-01-29T01:16:10;92786.09;;;2.59;77.33
39681;BME280;26327;42.550;23.120;2023-01-29T01:18:36;92811.31;;;2.83;77.60
39681;BME280;26327;42.550;23.120;2023-01-29T01:21:02;92797.00;;;2.80;77.69
39681;BME280;26327;42.550;23.120;2023-01-29T01:23:27;92823.38;;;2.92;77.71
39681;BME280;26327;42.550;23.120;2023-01-29T01:25:53;92807.53;;;2.48;78.34
39681;BME280;26327;42.550;23.120;2023-01-29T01:28:18;92813.06;;;2.44;79.83
39681;BME280;26327;42.550;23.120;2023-01-29T01:30:44;92835.88;;;2.47;79.60
39681;BME280;26327;42.550;23.120;2023-01-29T01:33:09;92723.00;;;1.99;79.38
39681;BME280;26327;42.550;23.120;2023-01-29T01:35:34;92758.53;;;2.32;79.20
39681;BME280;26327;42.550;23.120;2023-01-29T01:38:02;92792.97;;;2.59;78.82
39681;BME280;26327;42.550;23.120;2023-01-29T01:40:27;92763.28;;;2.46;78.49
39681;BME280;26327;42.550;23.120;2023-01-29T01:42:55;92839.69;;;3.10;78.27
39681;BME280;26327;42.550;23.120;2023-01-29T01:45:31;92848.47;;;3.17;77.63
39681;BME280;26327;42.550;23.120;2023-01-29T01:48:05;92823.63;;;3.18;77.30
39681;BME280;26327;42.550;23.120;2023-01-29T01:53:07;92821.97;;;3.27;76.77
39681;BME280;26327;42.550;23.120;2023-01-29T01:55:38;92745.84;;;2.79;76.23
39681;BME280;26327;42.550;23.120;2023-01-29T01:58:10;92839.13;;;3.45;76.07
39681;BME280;26327;42.550;23.120;2023-01-29T02:00:37;92814.16;;;3.19;76.06
39681;BME280;26327;42.550;23.120;2023-01-29T02:03:03;92699.03;;;2.38;76.29
39681;BME280;26327;42.550;23.120;2023-01-29T02:05:49;92739.91;;;2.59;76.63
39681;BME280;26327;42.550;23.120;2023-01-29T02:09:01;92837.53;;;3.15;76.72
39681;BME280;26327;42.550;23.120;2023-01-29T02:11:48;92839.97;;;3.07;77.54
39681;BME280;26327;42.550;23.120;2023-01-29T02:14:14;92835.78;;;3.16;76.99
39681;BME280;26327;42.550;23.120;2023-01-29T02:16:40;92821.59;;;3.12;77.24
39681;BME280;26327;42.550;23.120;2023-01-29T02:19:12;92751.53;;;2.53;77.89
39681;BME280;26327;42.550;23.120;2023-01-29T02:27:45;92785.25;;;3.07;76.54
39681;BME280;26327;42.550;23.120;2023-01-29T02:30:29;92754.22;;;2.81;76.38
39681;BME280;26327;42.550;23.120;2023-01-29T02:33:18;92759.75;;;2.67;77.15
39681;BME280;26327;42.550;23.120;2023-01-29T02:41:26;92854.97;;;3.12;78.16
39681;BME280;26327;42.550;23.120;2023-01-29T02:44:15;92851.03;;;2.79;79.71
39681;BME280;26327;42.550;23.120;2023-01-29T02:54:45;92816.94;;;2.29;81.03
39681;BME280;26327;42.550;23.120;2023-01-29T02:59:53;92862.00;;;2.91;80.39
39681;BME280;26327;42.550;23.120;2023-01-29T03:02:24;92861.47;;;2.97;80.50
39681;BME280;26327;42.550;23.120;2023-01-29T03:04:58;92857.81;;;2.99;80.08
39681;BME280;26327;42.550;23.120;2023-01-29T03:07:27;92865.66;;;3.07;79.88
39681;BME280;26327;42.550;23.120;2023-01-29T07:44:45;93003.81;;;4.47;71.66
39681;BME280;26327;42.550;23.120;2023-01-29T07:47:11;92981.25;;;4.31;72.00
39681;BME280;26327;42.550;23.120;2023-01-29T07:49:36;92991.66;;;4.39;71.77
39681;BME280;26327;42.550;23.120;2023-01-29T07:52:02;93002.72;;;4.50;71.20
39681;BME280;26327;42.550;23.120;2023-01-29T07:54:27;92988.06;;;4.13;72.05
39681;BME280;26327;42.550;23.120;2023-01-29T07:56:52;92997.66;;;4.30;71.14
39681;BME280;26327;42.550;23.120;2023-01-29T07:59:18;93012.22;;;4.49;71.66
39681;BME280;26327;42.550;23.120;2023-01-29T08:01:43;92946.94;;;4.03;71.67
39681;BME280;26327;42.550;23.120;2023-01-29T08:04:08;92870.06;;;3.54;71.14
39681;BME280;26327;42.550;23.120;2023-01-29T08:06:34;93022.94;;;4.35;71.63
39681;BME280;26327;42.550;23.120;2023-01-29T08:08:59;92980.88;;;4.17;71.51
39681;BME280;26327;42.550;23.120;2023-01-29T08:11:24;93021.31;;;4.34;71.25
39681;BME280;26327;42.550;23.120;2023-01-29T08:13:50;93007.13;;;4.30;71.32
39681;BME280;26327;42.550;23.120;2023-01-29T08:16:16;93035.25;;;4.41;71.53
39681;BME280;26327;42.550;23.120;2023-01-29T08:18:41;93030.50;;;4.46;71.72
39681;BME280;26327;42.550;23.120;2023-01-29T08:21:10;93034.06;;;4.35;71.20
39681;BME280;26327;42.550;23.120;2023-01-29T08:23:35;93018.50;;;4.08;71.69
39681;BME280;26327;42.550;23.120;2023-01-29T08:26:02;93026.75;;;4.21;72.24
39681;BME280;26327;42.550;23.120;2023-01-29T08:28:27;93006.44;;;4.18;72.04
39681;BME280;26327;42.550;23.120;2023-01-29T08:30:53;92952.13;;;3.74;71.75
39681;BME280;26327;42.550;23.120;2023-01-29T08:33:19;92973.88;;;3.99;71.63
39681;BME280;26327;42.550;23.120;2023-01-29T08:35:48;93028.41;;;3.64;73.44
39681;BME280;26327;42.550;23.120;2023-01-29T08:38:15;93022.31;;;3.94;72.61
39681;BME280;26327;42.550;23.120;2023-01-29T08:40:41;92954.56;;;3.28;74.20
39681;BME280;26327;42.550;23.120;2023-01-29T08:43:07;93013.78;;;3.65;74.48
39681;BME280;26327;42.550;23.120;2023-01-29T08:45:35;93002.56;;;3.66;73.98
39681;BME280;26327;42.550;23.120;2023-01-29T08:48:00;92969.72;;;3.60;73.89
39681;BME280;26327;42.550;23.120;2023-01-29T08:50:26;92969.16;;;3.75;73.56
39681;BME280;26327;42.550;23.120;2023-01-29T08:52:56;93051.91;;;4.37;73.10
39681;BME280;26327;42.550;23.120;2023-01-29T08:55:23;92999.69;;;4.07;72.63
39681;BME280;26327;42.550;23.120;2023-01-29T08:57:48;93040.53;;;4.39;72.91
39681;BME280;26327;42.550;23.120;2023-01-29T09:00:14;93036.72;;;4.43;72.10
39681;BME280;26327;42.550;23.120;2023-01-29T09:02:39;92975.88;;;4.05;71.81
39681;BME280;26327;42.550;23.120;2023-01-29T09:05:05;92982.78;;;4.05;71.47
39681;BME280;26327;42.550;23.120;2023-01-29T09:07:31;92986.63;;;3.91;71.43
39681;BME280;26327;42.550;23.120;2023-01-29T09:09:56;93045.69;;;4.39;71.69
39681;BME280;26327;42.550;23.120;2023-01-29T09:12:22;93064.72;;;4.56;71.24
39681;BME280;26327;42.550;23.120;2023-01-29T09:14:47;93061.47;;;4.64;71.41
39681;BME280;26327;42.550;23.120;2023-01-29T09:17:13;93031.56;;;4.53;70.33
39681;BME280;26327;42.550;23.120;2023-01-29T09:19:38;92987.50;;;4.29;70.35
39681;BME280;26327;42.550;23.120;2023-01-29T09:22:03;93049.66;;;4.71;69.83
39681;BME280;26327;42.550;23.120;2023-01-29T09:24:29;93056.03;;;4.67;69.94
39681;BME280;26327;42.550;23.120;2023-01-29T09:26:54;93026.81;;;4.58;69.77
39681;BME280;26327;42.550;23.120;2023-01-29T09:29:20;92980.34;;;4.13;69.54
39681;BME280;26327;42.550;23.120;2023-01-29T09:31:45;92976.50;;;4.36;68.65
39681;BME280;26327;42.550;23.120;2023-01-29T09:34:10;93042.31;;;4.86;68.06
39681;BME280;26327;42.550;23.120;2023-01-29T09:36:36;93028.47;;;4.87;67.79
39681;BME280;26327;42.550;23.120;2023-01-29T09:39:01;92968.19;;;4.52;68.25
39681;BME280;26327;42.550;23.120;2023-01-29T09:41:45;93046.97;;;5.00;68.60
39681;BME280;26327;42.550;23.120;2023-01-29T09:44:18;93046.56;;;5.04;67.95
39681;BME280;26327;42.550;23.120;2023-01-29T09:46:49;93012.69;;;4.62;67.41
39681;BME280;26327;42.550;23.120;2023-01-29T09:49:35;93048.59;;;4.73;68.03
39681;BME280;26327;42.550;23.120;2023-01-29T09:52:08;93036.91;;;4.69;68.66
39681;BME280;26327;42.550;23.120;2023-01-29T09:57:16;92957.31;;;4.58;66.55
39681;BME280;26327;42.550;23.120;2023-01-29T09:59:43;93024.72;;;5.09;66.31
39681;BME280;26327;42.550;23.120;2023-01-29T10:02:16;93033.59;;;5.24;66.09
39681;BME280;26327;42.550;23.120;2023-01-29T10:05:28;93011.53;;;5.21;66.19
39681;BME280;26327;42.550;23.120;2023-01-29T10:19:34;93013.66;;;5.26;65.79
39681;BME280;26327;42.550;23.120;2023-01-29T10:27:17;92985.56;;;5.05;65.19
39681;BME280;26327;42.550;23.120;2023-01-29T10:29:44;92936.97;;;4.74;65.84
39681;BME280;26327;42.550;23.120;2023-01-29T10:32:22;92987.25;;;4.96;65.90
39681;BME280;26327;42.550;23.120;2023-01-29T10:37:21;92976.94;;;4.96;66.36
39681;BME280;26327;42.550;23.120;2023-01-29T10:39:48;93004.06;;;4.91;67.58
39681;BME280;26327;42.550;23.120;2023-01-29T10:42:23;93003.25;;;4.90;67.74
39681;BME280;26327;42.550;23.120;2023-01-29T10:50:50;92946.47;;;4.64;67.46
39681;BME280;26327;42.550;23.120;2023-01-29T10:58:46;92962.50;;;4.49;69.16
39681;BME280;26327;42.550;23.120;2023-01-29T11:01:13;92959.28;;;4.47;69.20
39681;BME280;26327;42.550;23.120;2023-01-29T11:03:39;93004.94;;;4.72;69.54
39681;BME280;26327;42.550;23.120;2023-01-29T11:06:16;92960.56;;;4.60;69.11
39681;BME280;26327;42.550;23.120;2023-01-29T11:12:34;92969.63;;;4.64;68.81
39681;BME280;26327;42.550;23.120;2023-01-29T11:14:44;92985.59;;;4.68;67.69
39681;BME280;26327;42.550;23.120;2023-01-29T11:17:20;92995.69;;;4.52;68.79
39681;BME280;26327;42.550;23.120;2023-01-29T11:19:48;92991.44;;;4.60;68.90
39681;BME280;26327;42.550;23.120;2023-01-29T11:22:23;92967.41;;;4.42;69.00
39681;BME280;26327;42.550;23.120;2023-01-29T11:27:39;92780.09;;;3.36;68.43
39681;BME280;26327;42.550;23.120;2023-01-29T11:30:14;92966.44;;;4.53;68.70
39681;BME280;26327;42.550;23.120;2023-01-29T11:32:40;92970.66;;;4.44;69.21
39681;BME280;26327;42.550;23.120;2023-01-29T11:37:42;92975.53;;;4.47;69.95
39681;BME280;26327;42.550;23.120;2023-01-29T11:40:31;92975.03;;;4.34;69.68
39681;BME280;26327;42.550;23.120;2023-01-29T11:42:58;92974.50;;;4.21;70.25
39681;BME280;26327;42.550;23.120;2023-01-29T11:45:37;92954.19;;;4.18;70.75
39681;BME280;26327;42.550;23.120;2023-01-29T11:48:14;92875.66;;;3.96;70.26
39681;BME280;26327;42.550;23.120;2023-01-29T11:50:41;92774.13;;;3.45;70.01
39681;BME280;26327;42.550;23.120;2023-01-29T11:53:21;92947.88;;;4.49;69.68
39681;BME280;26327;42.550;23.120;2023-01-29T11:55:48;92874.44;;;4.00;69.83
39681;BME280;26327;42.550;23.120;2023-01-29T11:58:21;92934.44;;;4.28;70.44
39681;BME280;26327;42.550;23.120;2023-01-29T12:00:49;92877.03;;;3.90;70.47
39681;BME280;26327;42.550;23.120;2023-01-29T12:03:21;92941.88;;;4.31;70.91
39681;BME280;26327;42.550;23.120;2023-01-29T12:05:58;92875.53;;;3.97;70.08
39681;BME280;26327;42.550;23.120;2023-01-29T12:08:28;92824.06;;;3.70;70.18
39681;BME280;26327;42.550;23.120;2023-01-29T12:11:14;92938.41;;;4.50;69.99
39681;BME280;26327;42.550;23.120;2023-01-29T12:13:59;92825.09;;;3.77;70.11
39681;BME280;26327;42.550;23.120;2023-01-29T12:19:11;92872.56;;;3.92;70.31
39681;BME280;26327;42.550;23.120;2023-01-29T12:21:58;92871.28;;;4.06;69.74
39681;BME280;26327;42.550;23.120;2023-01-29T12:24:33;92883.53;;;4.31;69.71
39681;BME280;26327;42.550;23.120;2023-01-29T12:29:40;92950.19;;;4.80;68.93
39681;BME280;26327;42.550;23.120;2023-01-29T12:38:18;92958.97;;;4.87;68.44
39681;BME280;26327;42.550;23.120;2023-01-29T12:40:59;92859.50;;;4.13;68.30
39681;BME280;26327;42.550;23.120;2023-01-29T12:43:43;92940.25;;;4.57;68.45
39681;BME280;26327;42.550;23.120;2023-01-29T12:46:36;92955.41;;;4.60;68.75
39681;BME280;26327;42.550;23.120;2023-01-29T12:49:10;92846.56;;;3.95;68.98
39681;BME280;26327;42.550;23.120;2023-01-29T12:51:47;92877.91;;;4.08;68.76
39681;BME280;26327;42.550;23.120;2023-01-29T12:54:25;92860.88;;;4.07;68.89
39681;BME280;26327;42.550;23.120;2023-01-29T12:56:57;92909.38;;;4.30;68.09
39681;BME280;26327;42.550;23.120;2023-01-29T13:02:33;92954.81;;;4.76;67.79
39681;BME280;26327;42.550;23.120;2023-01-29T13:05:26;92805.50;;;3.86;67.40
39681;BME280;26327;42.550;23.120;2023-01-29T13:07:58;92909.16;;;4.51;67.88
39681;BME280;26327;42.550;23.120;2023-01-29T13:10:30;92951.44;;;4.76;67.56
39681;BME280;26327;42.550;23.120;2023-01-29T13:13:05;92929.59;;;4.52;67.64
39681;BME280;26327;42.550;23.120;2023-01-29T13:15:39;92963.75;;;4.72;67.90
39681;BME280;26327;42.550;23.120;2023-01-29T13:20:43;92964.16;;;4.77;68.49
39681;BME280;26327;42.550;23.120;2023-01-29T13:23:35;92944.56;;;4.66;68.60
39681;BME280;26327;42.550;23.120;2023-01-29T13:26:02;92890.28;;;4.32;68.34
39681;BME280;26327;42.550;23.120;2023-01-29T13:28:30;92925.06;;;4.64;68.38
39681;BME280;26327;42.550;23.120;2023-01-29T13:31:29;92956.69;;;4.84;67.92
39681;BME280;26327;42.550;23.120;2023-01-29T13:36:45;92939.41;;;4.66;68.52
39681;BME280;26327;42.550;23.120;2023-01-29T13:39:30;92959.53;;;4.81;68.46
39681;BME280;26327;42.550;23.120;2023-01-29T13:41:59;92854.06;;;4.16;68.32
39681;BME280;26327;42.550;23.120;2023-01-29T13:44:32;92831.16;;;3.95;68.03
39681;BME280;26327;42.550;23.120;2023-01-29T13:47:01;92965.34;;;4.83;67.68
39681;BME280;26327;42.550;23.120;2023-01-29T13:49:43;92965.75;;;4.88;67.53
39681;BME280;26327;42.550;23.120;2023-01-29T13:55:05;92971.56;;;4.90;67.22
39681;BME280;26327;42.550;23.120;2023-01-29T13:59:59;92933.53;;;4.47;67.87
39681;BME280;26327;42.550;23.120;2023-01-29T14:02:28;92921.78;;;4.44;67.55
39681;BME280;26327;42.550;23.120;2023-01-29T14:08:01;92911.63;;;4.42;68.02
39681;BME280;26327;42.550;23.120;2023-01-29T14:10:29;92979.09;;;4.73;67.94
39681;BME280;26327;42.550;23.120;2023-01-29T14:15:34;92937.97;;;4.54;67.79
39681;BME280;26327;42.550;23.120;2023-01-29T14:20:38;92898.72;;;4.15;67.73
39681;BME280;26327;42.550;23.120;2023-01-29T14:23:06;92969.63;;;4.64;67.84
39681;BME280;26327;42.550;23.120;2023-01-29T14:25:36;92935.91;;;4.30;67.78
39681;BME280;26327;42.550;23.120;2023-01-29T14:28:03;92901.44;;;4.14;67.60
39681;BME280;26327;42.550;23.120;2023-01-29T14:30:31;92969.84;;;4.43;68.08
39681;BME280;26327;42.550;23.120;2023-01-29T14:32:58;92991.06;;;4.55;67.46
39681;BME280;26327;42.550;23.120;2023-01-29T14:35:28;92978.84;;;4.20;68.35
39681;BME280;26327;42.550;23.120;2023-01-29T14:37:59;92991.41;;;4.23;68.50
39681;BME280;26327;42.550;23.120;2023-01-29T14:40:27;92999.94;;;4.33;68.63
39681;BME280;26327;42.550;23.120;2023-01-29T14:43:00;92974.16;;;3.96;69.19
39681;BME280;26327;42.550;23.120;2023-01-29T14:45:32;93010.00;;;4.07;69.07
39681;BME280;26327;42.550;23.120;2023-01-29T14:48:00;93004.44;;;4.02;70.11
39681;BME280;26327;42.550;23.120;2023-01-29T14:56:02;93011.91;;;3.67;72.41
39681;BME280;26327;42.550;23.120;2023-01-29T14:58:42;93014.06;;;3.62;73.41
39681;BME280;26327;42.550;23.120;2023-01-29T15:01:22;93008.13;;;3.52;73.16
39681;BME280;26327;42.550;23.120;2023-01-29T15:03:51;92991.47;;;3.46;73.66
39681;BME280;26327;42.550;23.120;2023-01-29T15:06:28;93011.09;;;3.37;74.48
39681;BME280;26327;42.550;23.120;2023-01-29T15:09:08;92938.25;;;2.79;75.45
39681;BME280;26327;42.550;23.120;2023-01-29T15:14:30;93013.94;;;3.54;74.61
39681;BME280;26327;42.550;23.120;2023-01-29T15:17:17;93007.84;;;3.64;73.17
39681;BME280;26327;42.550;23.120;2023-01-29T15:19:47;93009.06;;;3.60;73.24
39681;BME280;26327;42.550;23.120;2023-01-29T15:22:18;92935.50;;;3.30;73.11
39681;BME280;26327;42.550;23.120;2023-01-29T15:24:46;93011.38;;;3.92;72.38
39681;BME280;26327;42.550;23.120;2023-01-29T15:27:16;92928.63;;;3.40;71.94
39681;BME280;26327;42.550;23.120;2023-01-29T15:30:07;93004.59;;;3.91;72.65
39681;BME280;26327;42.550;23.120;2023-01-29T15:32:34;93015.16;;;3.88;72.64
39681;BME280;26327;42.550;23.120;2023-01-29T15:35:09;92929.69;;;3.47;71.88
39681;BME280;26327;42.550;23.120;2023-01-29T15:37:36;92934.56;;;3.51;71.19
39681;BME280;26327;42.550;23.120;2023-01-29T15:40:13;93013.50;;;4.06;70.92
39681;BME280;26327;42.550;23.120;2023-01-29T15:42:46;92931.59;;;3.55;70.72
39681;BME280;26327;42.550;23.120;2023-01-29T15:45:29;92996.63;;;3.94;70.42
39681;BME280;26327;42.550;23.120;2023-01-29T15:48:17;93007.03;;;4.02;70.42
39681;BME280;26327;42.550;23.120;2023-01-29T15:50:44;92949.16;;;3.60;70.35
39681;BME280;26327;42.550;23.120;2023-01-29T15:53:19;93012.31;;;4.01;70.33
39681;BME280;26327;42.550;23.120;2023-01-29T15:55:46;92954.41;;;3.68;69.56
39681;BME280;26327;42.550;23.120;2023-01-29T15:58:17;92968.63;;;3.72;70.43
39681;BME280;26327;42.550;23.120;2023-01-29T16:00:49;93016.63;;;4.10;70.41
39681;BME280;26327;42.550;23.120;2023-01-29T16:03:15;93028.91;;;4.16;70.14
39681;BME280;26327;42.550;23.120;2023-01-29T16:05:41;92881.84;;;3.27;69.88
39681;BME280;26327;42.550;23.120;2023-01-29T16:08:11;93023.09;;;4.14;69.87
39681;BME280;26327;42.550;23.120;2023-01-29T16:10:39;93017.56;;;3.99;69.68
39681;BME280;26327;42.550;23.120;2023-01-29T16:13:18;93028.56;;;3.82;68.86
39681;BME280;26327;42.550;23.120;2023-01-29T16:15:57;93033.25;;;3.77;68.75
39681;BME280;26327;42.550;23.120;2023-01-29T16:18:35;93040.44;;;3.73;68.73
39681;BME280;26327;42.550;23.120;2023-01-29T16:21:13;93042.34;;;3.81;68.92
39681;BME280;26327;42.550;23.120;2023-01-29T16:23:47;93040.16;;;3.57;69.09
39681;BME280;26327;42.550;23.120;2023-01-29T16:26:17;93043.66;;;3.46;69.79
39681;BME280;26327;42.550;23.120;2023-01-29T16:28:44;93029.47;;;3.42;69.88
39681;BME280;26327;42.550;23.120;2023-01-29T16:31:11;93026.91;;;3.42;70.10
39681;BME280;26327;42.550;23.120;2023-01-29T16:33:41;92978.72;;;3.15;70.18
39681;BME280;26327;42.550;23.120;2023-01-29T16:36:18;92947.53;;;3.10;69.90
39681;BME280;26327;42.550;23.120;2023-01-29T16:38:50;93028.38;;;3.35;70.02
39681;BME280;26327;42.550;23.120;2023-01-29T16:48:55;93046.09;;;3.48;70.03
39681;BME280;26327;42.550;23.120;2023-01-29T16:51:28;93058.00;;;3.59;70.13
39681;BME280;26327;42.550;23.120;2023-01-29T16:53:59;93046.78;;;3.60;69.14
39681;BME280;26327;42.550;23.120;2023-01-29T16:56:28;92988.84;;;3.07;69.89
39681;BME280;26327;42.550;23.120;2023-01-29T16:58:55;92970.75;;;2.99;69.65
39681;BME280;26327;42.550;23.120;2023-01-29T17:01:23;92970.06;;;2.97;69.75
39681;BME280;26327;42.550;23.120;2023-01-29T17:03:57;93072.31;;;3.42;70.20
39681;BME280;26327;42.550;23.120;2023-01-29T17:06:25;93051.84;;;3.21;70.58
39681;BME280;26327;42.550;23.120;2023-01-29T17:08:51;93044.09;;;3.02;71.47
39681;BME280;26327;42.550;23.120;2023-01-29T17:11:35;93055.78;;;3.25;71.33
39681;BME280;26327;42.550;23.120;2023-01-29T17:14:07;92972.22;;;2.92;70.85
39681;BME280;26327;42.550;23.120;2023-01-29T17:16:35;92978.03;;;2.94;70.72
39681;BME280;26327;42.550;23.120;2023-01-29T17:19:17;92977.28;;;2.73;71.18
39681;BME280;26327;42.550;23.120;2023-01-29T17:21:48;92973.38;;;2.78;71.40
39681;BME280;26327;42.550;23.120;2023-01-29T17:24:13;93047.66;;;3.20;71.30
39681;BME280;26327;42.550;23.120;2023-01-29T17:26:39;93033.44;;;3.06;71.92
39681;BME280;26327;42.550;23.120;2023-01-29T17:29:05;93057.22;;;3.08;72.12
39681;BME280;26327;42.550;23.120;2023-01-29T17:31:32;93031.66;;;2.97;71.92
39681;BME280;26327;42.550;23.120;2023-01-29T17:33:57;93040.88;;;3.09;71.53
39681;BME280;26327;42.550;23.120;2023-01-29T17:36:24;93048.59;;;3.19;71.27
39681;BME280;26327;42.550;23.120;2023-01-29T17:38:50;93024.13;;;3.15;71.46
39681;BME280;26327;42.550;23.120;2023-01-29T17:41:23;92977.06;;;2.86;71.35
39681;BME280;26327;42.550;23.120;2023-01-29T17:43:51;93048.78;;;3.37;71.25
39681;BME280;26327;42.550;23.120;2023-01-29T17:46:17;93005.75;;;3.10;70.98
39681;BME280;26327;42.550;23.120;2023-01-29T17:48:43;93032.97;;;3.41;70.82
39681;BME280;26327;42.550;23.120;2023-01-29T17:51:13;93063.28;;;3.57;70.28
39681;BME280;26327;42.550;23.120;2023-01-29T17:53:40;93044.06;;;3.52;70.10
39681;BME280;26327;42.550;23.120;2023-01-29T17:56:12;93002.78;;;3.14;70.70
39681;BME280;26327;42.550;23.120;2023-01-29T17:58:38;92982.66;;;3.10;70.34
39681;BME280;26327;42.550;23.120;2023-01-29T18:01:04;93035.56;;;3.41;70.50
39681;BME280;26327;42.550;23.120;2023-01-29T18:03:29;93052.47;;;3.54;70.76
39681;BME280;26327;42.550;23.120;2023-01-29T18:05:54;93066.78;;;3.56;70.13
39681;BME280;26327;42.550;23.120;2023-01-29T18:08:25;92966.94;;;2.94;70.81
39681;BME280;26327;42.550;23.120;2023-01-29T18:10:52;93045.69;;;3.43;71.30
39681;BME280;26327;42.550;23.120;2023-01-29T18:13:18;93053.28;;;3.54;70.90
39681;BME280;26327;42.550;23.120;2023-01-29T18:15:43;92976.56;;;3.01;71.24
39681;BME280;26327;42.550;23.120;2023-01-29T18:18:14;92985.75;;;3.13;71.25
39681;BME280;26327;42.550;23.120;2023-01-29T18:20:40;93030.16;;;3.44;70.87
39681;BME280;26327;42.550;23.120;2023-01-29T18:23:07;92979.28;;;3.09;71.39
39681;BME280;26327;42.550;23.120;2023-01-29T18:25:33;92997.53;;;3.26;71.25
39681;BME280;26327;42.550;23.120;2023-01-29T18:27:59;92971.84;;;3.16;71.25
39681;BME280;26327;42.550;23.120;2023-01-29T18:30:24;93031.38;;;3.60;70.96
39681;BME280;26327;42.550;23.120;2023-01-29T18:32:50;93045.97;;;3.69;70.94
39681;BME280;26327;42.550;23.120;2023-01-29T18:35:16;93039.75;;;3.71;70.57
39681;BME280;26327;42.550;23.120;2023-01-29T18:37:41;92963.19;;;3.27;70.02
39681;BME280;26327;42.550;23.120;2023-01-29T18:40:08;93028.94;;;3.68;70.29
39681;BME280;26327;42.550;23.120;2023-01-29T18:42:34;93043.69;;;3.75;70.01
39681;BME280;26327;42.550;23.120;2023-01-29T18:45:00;93051.81;;;3.81;69.89
39681;BME280;26327;42.550;23.120;2023-01-29T18:47:26;93033.94;;;3.69;69.76
39681;BME280;26327;42.550;23.120;2023-01-29T18:49:51;92978.91;;;3.33;69.99
39681;BME280;26327;42.550;23.120;2023-01-29T18:52:19;92976.88;;;3.37;69.84
39681;BME280;26327;42.550;23.120;2023-01-29T18:54:45;93044.34;;;3.68;70.11
39681;BME280;26327;42.550;23.120;2023-01-29T18:57:10;92989.84;;;3.35;70.17
39681;BME280;26327;42.550;23.120;2023-01-29T18:59:36;93056.81;;;3.82;69.96
39681;BME280;26327;42.550;23.120;2023-01-29T19:02:01;92993.38;;;3.44;69.78
39681;BME280;26327;42.550;23.120;2023-01-29T19:04:27;93043.97;;;3.82;70.14
39681;BME280;26327;42.550;23.120;2023-01-29T19:06:53;93054.91;;;3.74;69.92
39681;BME280;26327;42.550;23.120;2023-01-29T19:09:18;93056.03;;;3.82;69.46
39681;BME280;26327;42.550;23.120;2023-01-29T19:11:45;92965.13;;;3.34;69.27
39681;BME280;26327;42.550;23.120;2023-01-29T19:14:10;92985.13;;;3.50;69.84
39681;BME280;26327;42.550;23.120;2023-01-29T19:16:35;93045.06;;;3.89;69.52
39681;BME280;26327;42.550;23.120;2023-01-29T19:19:01;92989.59;;;3.58;69.49
39681;BME280;26327;42.550;23.120;2023-01-29T19:21:26;93025.19;;;3.82;69.54
39681;BME280;26327;42.550;23.120;2023-01-29T19:23:54;92975.41;;;3.54;69.46
39681;BME280;26327;42.550;23.120;2023-01-29T19:26:20;92954.03;;;3.43;68.99
39681;BME280;26327;42.550;23.120;2023-01-29T19:28:46;92977.69;;;3.57;69.12
39681;BME280;26327;42.550;23.120;2023-01-29T19:31:11;93047.22;;;4.03;68.66
39681;BME280;26327;42.550;23.120;2023-01-29T19:33:37;92967.97;;;3.60;68.94
39681;BME280;26327;42.550;23.120;2023-01-29T19:36:03;93028.78;;;4.08;68.58
39681;BME280;26327;42.550;23.120;2023-01-29T19:38:29;92957.53;;;3.62;68.23
39681;BME280;26327;42.550;23.120;2023-01-29T19:40:58;93035.28;;;4.12;68.14
39681;BME280;26327;42.550;23.120;2023-01-29T19:43:28;92982.94;;;3.74;68.43
39681;BME280;26327;42.550;23.120;2023-01-29T19:45:58;92975.66;;;3.51;68.57
39681;BME280;26327;42.550;23.120;2023-01-29T19:48:25;92963.50;;;3.33;68.95